sensor_id;sensor_type;location;lat;lon;timestamp;P1;durP1;ratioP1;P2;durP2;ratioP2
75542;SDS011;64129;53.508;10.476;2023-04-25T00:01:35;4.57;;;3.22;;
75542;SDS011;64129;53.508;10.476;2023-04-25T00:04:03;5.68;;;3.72;;
75542;SDS011;64129;53.508;10.476;2023-04-25T00:06:32;6.53;;;3.38;;
75542;SDS011;64129;53.508;10.476;2023-04-25T00:09:02;4.72;;;3.35;;
75542;SDS011;64129;53.508;10.476;2023-04-25T00:11:29;4.13;;;2.75;;
75542;SDS011;64129;53.508;10.476;2023-04-25T00:13:57;7.97;;;3.95;;
75542;SDS011;64129;53.508;10.476;2023-04-25T00:16:23;4.32;;;3.20;;
75542;SDS011;64129;53.508;10.476;2023-04-25T00:18:50;4.93;;;3.53;;
75542;SDS011;64129;53.508;10.476;2023-04-25T00:21:20;7.50;;;3.83;;
75542;SDS011;64129;53.508;10.476;2023-04-25T00:23:46;8.95;;;3.47;;
75542;SDS011;64129;53.508;10.476;2023-04-25T00:26:13;7.18;;;3.20;;
75542;SDS011;64129;53.508;10.476;2023-04-25T00:28:40;5.13;;;3.17;;
75542;SDS011;64129;53.508;10.476;2023-04-25T00:31:07;6.13;;;3.53;;
75542;SDS011;64129;53.508;10.476;2023-04-25T00:33:33;7.43;;;3.60;;
75542;SDS011;64129;53.508;10.476;2023-04-25T00:36:00;4.45;;;3.47;;
75542;SDS011;64129;53.508;10.476;2023-04-25T00:38:27;5.72;;;3.50;;
75542;SDS011;64129;53.508;10.476;2023-04-25T00:40:53;6.78;;;3.60;;
75542;SDS011;64129;53.508;10.476;2023-04-25T00:45:48;6.78;;;3.47;;
75542;SDS011;64129;53.508;10.476;2023-04-25T00:48:16;6.47;;;3.60;;
75542;SDS011;64129;53.508;10.476;2023-04-25T00:50:46;3.97;;;2.55;;
75542;SDS011;64129;53.508;10.476;2023-04-25T00:55:44;4.80;;;3.10;;
75542;SDS011;64129;53.508;10.476;2023-04-25T00:58:11;5.38;;;3.25;;
75542;SDS011;64129;53.508;10.476;2023-04-25T01:00:39;4.22;;;3.10;;
75542;SDS011;64129;53.508;10.476;2023-04-25T01:03:07;5.50;;;3.17;;
75542;SDS011;64129;53.508;10.476;2023-04-25T01:05:33;6.60;;;3.22;;
75542;SDS011;64129;53.508;10.476;2023-04-25T01:08:00;7.35;;;3.33;;
75542;SDS011;64129;53.508;10.476;2023-04-25T01:10:27;10.80;;;3.38;;
75542;SDS011;64129;53.508;10.476;2023-04-25T01:12:53;11.63;;;3.67;;
75542;SDS011;64129;53.508;10.476;2023-04-25T01:15:20;5.32;;;2.67;;
75542;SDS011;64129;53.508;10.476;2023-04-25T01:17:47;10.73;;;3.67;;
75542;SDS011;64129;53.508;10.476;2023-04-25T01:20:15;6.70;;;3.38;;
75542;SDS011;64129;53.508;10.476;2023-04-25T01:22:42;7.95;;;3.15;;
75542;SDS011;64129;53.508;10.476;2023-04-25T01:25:09;5.18;;;2.13;;
75542;SDS011;64129;53.508;10.476;2023-04-25T01:27:37;7.88;;;3.38;;
75542;SDS011;64129;53.508;10.476;2023-04-25T01:30:04;11.85;;;3.33;;
75542;SDS011;64129;53.508;10.476;2023-04-25T01:32:31;8.77;;;2.90;;
75542;SDS011;64129;53.508;10.476;2023-04-25T01:35:05;18.00;;;3.38;;
75542;SDS011;64129;53.508;10.476;2023-04-25T01:37:39;9.27;;;3.13;;
75542;SDS011;64129;53.508;10.476;2023-04-25T01:40:08;10.68;;;2.83;;
75542;SDS011;64129;53.508;10.476;2023-04-25T01:42:36;9.35;;;2.75;;
75542;SDS011;64129;53.508;10.476;2023-04-25T01:45:05;7.35;;;2.60;;
75542;SDS011;64129;53.508;10.476;2023-04-25T01:47:32;14.48;;;4.00;;
75542;SDS011;64129;53.508;10.476;2023-04-25T01:50:01;11.63;;;2.90;;
75542;SDS011;64129;53.508;10.476;2023-04-25T01:52:32;13.32;;;2.95;;
75542;SDS011;64129;53.508;10.476;2023-04-25T01:55:02;7.07;;;2.05;;
75542;SDS011;64129;53.508;10.476;2023-04-25T01:57:31;9.07;;;2.47;;
75542;SDS011;64129;53.508;10.476;2023-04-25T02:00:00;9.85;;;3.45;;
75542;SDS011;64129;53.508;10.476;2023-04-25T02:02:38;12.88;;;3.08;;
75542;SDS011;64129;53.508;10.476;2023-04-25T02:05:12;12.70;;;2.72;;
75542;SDS011;64129;53.508;10.476;2023-04-25T02:07:41;9.90;;;2.88;;
75542;SDS011;64129;53.508;10.476;2023-04-25T02:10:07;18.40;;;3.30;;
75542;SDS011;64129;53.508;10.476;2023-04-25T02:12:40;13.57;;;3.08;;
75542;SDS011;64129;53.508;10.476;2023-04-25T02:15:20;12.63;;;2.67;;
75542;SDS011;64129;53.508;10.476;2023-04-25T02:17:50;13.88;;;3.15;;
75542;SDS011;64129;53.508;10.476;2023-04-25T02:20:20;17.67;;;3.60;;
75542;SDS011;64129;53.508;10.476;2023-04-25T02:22:47;11.40;;;2.67;;
75542;SDS011;64129;53.508;10.476;2023-04-25T02:25:14;10.98;;;2.80;;
75542;SDS011;64129;53.508;10.476;2023-04-25T02:27:42;14.63;;;3.20;;
75542;SDS011;64129;53.508;10.476;2023-04-25T02:30:09;13.13;;;2.53;;
75542;SDS011;64129;53.508;10.476;2023-04-25T02:32:36;16.00;;;3.08;;
75542;SDS011;64129;53.508;10.476;2023-04-25T02:35:02;13.50;;;3.42;;
75542;SDS011;64129;53.508;10.476;2023-04-25T02:37:33;13.27;;;3.33;;
75542;SDS011;64129;53.508;10.476;2023-04-25T02:40:00;10.52;;;3.08;;
75542;SDS011;64129;53.508;10.476;2023-04-25T02:42:27;12.77;;;2.85;;
75542;SDS011;64129;53.508;10.476;2023-04-25T02:44:56;10.52;;;2.38;;
75542;SDS011;64129;53.508;10.476;2023-04-25T02:47:22;7.80;;;2.30;;
75542;SDS011;64129;53.508;10.476;2023-04-25T02:49:49;12.50;;;2.50;;
75542;SDS011;64129;53.508;10.476;2023-04-25T02:52:16;8.13;;;2.03;;
75542;SDS011;64129;53.508;10.476;2023-04-25T02:54:44;13.25;;;2.33;;
75542;SDS011;64129;53.508;10.476;2023-04-25T02:57:11;18.45;;;3.25;;
75542;SDS011;64129;53.508;10.476;2023-04-25T02:59:38;12.90;;;2.75;;
75542;SDS011;64129;53.508;10.476;2023-04-25T03:02:04;11.18;;;2.10;;
75542;SDS011;64129;53.508;10.476;2023-04-25T03:04:31;10.57;;;2.88;;
75542;SDS011;64129;53.508;10.476;2023-04-25T03:06:57;11.68;;;2.78;;
75542;SDS011;64129;53.508;10.476;2023-04-25T03:09:24;19.30;;;4.35;;
75542;SDS011;64129;53.508;10.476;2023-04-25T03:11:51;9.55;;;2.75;;
75542;SDS011;64129;53.508;10.476;2023-04-25T03:14:18;11.63;;;2.70;;
75542;SDS011;64129;53.508;10.476;2023-04-25T03:16:44;13.85;;;2.95;;
75542;SDS011;64129;53.508;10.476;2023-04-25T03:19:11;12.10;;;3.00;;
75542;SDS011;64129;53.508;10.476;2023-04-25T03:21:37;13.85;;;2.75;;
75542;SDS011;64129;53.508;10.476;2023-04-25T03:24:04;16.92;;;3.33;;
75542;SDS011;64129;53.508;10.476;2023-04-25T03:26:31;14.98;;;3.33;;
75542;SDS011;64129;53.508;10.476;2023-04-25T03:28:58;13.60;;;3.45;;
75542;SDS011;64129;53.508;10.476;2023-04-25T03:31:26;10.02;;;2.72;;
75542;SDS011;64129;53.508;10.476;2023-04-25T03:33:52;13.45;;;3.63;;
75542;SDS011;64129;53.508;10.476;2023-04-25T03:36:21;15.38;;;3.63;;
75542;SDS011;64129;53.508;10.476;2023-04-25T03:38:47;12.43;;;3.15;;
75542;SDS011;64129;53.508;10.476;2023-04-25T03:43:49;11.75;;;3.80;;
75542;SDS011;64129;53.508;10.476;2023-04-25T03:46:16;7.60;;;2.70;;
75542;SDS011;64129;53.508;10.476;2023-04-25T03:48:42;12.27;;;2.78;;
75542;SDS011;64129;53.508;10.476;2023-04-25T03:51:14;12.30;;;3.00;;
75542;SDS011;64129;53.508;10.476;2023-04-25T03:53:42;13.40;;;2.50;;
75542;SDS011;64129;53.508;10.476;2023-04-25T03:56:14;12.98;;;2.75;;
75542;SDS011;64129;53.508;10.476;2023-04-25T03:58:44;3.60;;;1.27;;
75542;SDS011;64129;53.508;10.476;2023-04-25T04:01:11;10.10;;;2.40;;
75542;SDS011;64129;53.508;10.476;2023-04-25T04:03:39;12.80;;;2.67;;
75542;SDS011;64129;53.508;10.476;2023-04-25T04:06:06;10.25;;;2.65;;
75542;SDS011;64129;53.508;10.476;2023-04-25T04:08:39;12.18;;;2.47;;
75542;SDS011;64129;53.508;10.476;2023-04-25T04:11:06;10.38;;;2.47;;
75542;SDS011;64129;53.508;10.476;2023-04-25T04:13:32;12.95;;;2.75;;
75542;SDS011;64129;53.508;10.476;2023-04-25T04:16:00;12.23;;;3.60;;
75542;SDS011;64129;53.508;10.476;2023-04-25T04:18:27;12.18;;;3.00;;
75542;SDS011;64129;53.508;10.476;2023-04-25T04:20:55;10.60;;;2.10;;
75542;SDS011;64129;53.508;10.476;2023-04-25T04:23:24;10.23;;;2.53;;
75542;SDS011;64129;53.508;10.476;2023-04-25T04:25:54;14.80;;;2.70;;
75542;SDS011;64129;53.508;10.476;2023-04-25T04:28:37;7.20;;;2.00;;
75542;SDS011;64129;53.508;10.476;2023-04-25T04:31:12;7.53;;;2.22;;
75542;SDS011;64129;53.508;10.476;2023-04-25T04:33:39;12.45;;;2.63;;
75542;SDS011;64129;53.508;10.476;2023-04-25T04:36:06;7.85;;;2.67;;
75542;SDS011;64129;53.508;10.476;2023-04-25T04:38:33;8.73;;;2.15;;
75542;SDS011;64129;53.508;10.476;2023-04-25T04:41:02;10.95;;;2.22;;
75542;SDS011;64129;53.508;10.476;2023-04-25T04:43:44;11.70;;;2.30;;
75542;SDS011;64129;53.508;10.476;2023-04-25T04:46:43;7.60;;;2.20;;
75542;SDS011;64129;53.508;10.476;2023-04-25T04:49:20;15.93;;;2.38;;
75542;SDS011;64129;53.508;10.476;2023-04-25T04:52:19;14.65;;;2.75;;
75542;SDS011;64129;53.508;10.476;2023-04-25T04:54:51;5.85;;;2.45;;
75542;SDS011;64129;53.508;10.476;2023-04-25T04:57:34;8.93;;;2.10;;
75542;SDS011;64129;53.508;10.476;2023-04-25T05:00:27;15.50;;;3.17;;
75542;SDS011;64129;53.508;10.476;2023-04-25T05:03:11;7.43;;;2.25;;
75542;SDS011;64129;53.508;10.476;2023-04-25T05:05:58;10.10;;;2.40;;
75542;SDS011;64129;53.508;10.476;2023-04-25T05:08:30;10.02;;;2.17;;
75542;SDS011;64129;53.508;10.476;2023-04-25T05:11:15;13.27;;;1.95;;
75542;SDS011;64129;53.508;10.476;2023-04-25T05:13:57;8.50;;;2.22;;
75542;SDS011;64129;53.508;10.476;2023-04-25T05:16:43;13.25;;;3.08;;
75542;SDS011;64129;53.508;10.476;2023-04-25T05:22:16;11.20;;;2.30;;
75542;SDS011;64129;53.508;10.476;2023-04-25T05:25:12;9.52;;;2.45;;
75542;SDS011;64129;53.508;10.476;2023-04-25T05:27:59;9.00;;;2.58;;
75542;SDS011;64129;53.508;10.476;2023-04-25T05:30:37;12.85;;;2.55;;
75542;SDS011;64129;53.508;10.476;2023-04-25T05:33:08;12.15;;;2.88;;
75542;SDS011;64129;53.508;10.476;2023-04-25T05:35:35;8.10;;;2.30;;
75542;SDS011;64129;53.508;10.476;2023-04-25T05:38:02;8.40;;;2.10;;
75542;SDS011;64129;53.508;10.476;2023-04-25T05:40:54;10.93;;;2.30;;
75542;SDS011;64129;53.508;10.476;2023-04-25T05:43:42;13.55;;;2.42;;
75542;SDS011;64129;53.508;10.476;2023-04-25T05:46:21;13.85;;;2.90;;
75542;SDS011;64129;53.508;10.476;2023-04-25T05:49:11;10.18;;;2.85;;
75542;SDS011;64129;53.508;10.476;2023-04-25T05:52:00;8.73;;;2.38;;
75542;SDS011;64129;53.508;10.476;2023-04-25T05:54:27;5.15;;;2.10;;
75542;SDS011;64129;53.508;10.476;2023-04-25T05:56:56;7.90;;;2.15;;
75542;SDS011;64129;53.508;10.476;2023-04-25T05:59:22;11.23;;;2.28;;
75542;SDS011;64129;53.508;10.476;2023-04-25T06:01:49;4.68;;;1.30;;
75542;SDS011;64129;53.508;10.476;2023-04-25T06:04:16;9.68;;;2.35;;
75542;SDS011;64129;53.508;10.476;2023-04-25T06:06:42;8.65;;;2.75;;
75542;SDS011;64129;53.508;10.476;2023-04-25T06:09:09;11.07;;;2.33;;
75542;SDS011;64129;53.508;10.476;2023-04-25T06:11:36;9.27;;;1.92;;
75542;SDS011;64129;53.508;10.476;2023-04-25T06:14:03;6.57;;;1.80;;
75542;SDS011;64129;53.508;10.476;2023-04-25T06:16:31;7.13;;;2.28;;
75542;SDS011;64129;53.508;10.476;2023-04-25T06:18:58;11.50;;;2.58;;
75542;SDS011;64129;53.508;10.476;2023-04-25T06:21:24;7.53;;;2.25;;
75542;SDS011;64129;53.508;10.476;2023-04-25T06:23:51;7.18;;;1.88;;
75542;SDS011;64129;53.508;10.476;2023-04-25T06:26:21;6.88;;;2.47;;
75542;SDS011;64129;53.508;10.476;2023-04-25T06:28:48;6.97;;;1.65;;
75542;SDS011;64129;53.508;10.476;2023-04-25T06:31:15;7.28;;;2.03;;
75542;SDS011;64129;53.508;10.476;2023-04-25T06:33:43;15.38;;;2.90;;
75542;SDS011;64129;53.508;10.476;2023-04-25T06:36:09;10.73;;;2.50;;
75542;SDS011;64129;53.508;10.476;2023-04-25T06:38:37;7.40;;;2.90;;
75542;SDS011;64129;53.508;10.476;2023-04-25T06:41:04;9.73;;;2.30;;
75542;SDS011;64129;53.508;10.476;2023-04-25T06:43:34;8.32;;;2.05;;
75542;SDS011;64129;53.508;10.476;2023-04-25T06:46:09;7.57;;;2.20;;
75542;SDS011;64129;53.508;10.476;2023-04-25T06:48:42;9.15;;;2.65;;
75542;SDS011;64129;53.508;10.476;2023-04-25T06:51:08;11.98;;;3.00;;
75542;SDS011;64129;53.508;10.476;2023-04-25T06:53:36;10.90;;;2.00;;
75542;SDS011;64129;53.508;10.476;2023-04-25T06:56:05;9.80;;;2.35;;
75542;SDS011;64129;53.508;10.476;2023-04-25T06:58:52;9.65;;;2.25;;
75542;SDS011;64129;53.508;10.476;2023-04-25T07:01:39;4.88;;;1.50;;
75542;SDS011;64129;53.508;10.476;2023-04-25T07:04:19;7.05;;;2.00;;
75542;SDS011;64129;53.508;10.476;2023-04-25T07:06:49;10.10;;;2.13;;
75542;SDS011;64129;53.508;10.476;2023-04-25T07:09:21;10.52;;;2.50;;
75542;SDS011;64129;53.508;10.476;2023-04-25T07:11:48;7.82;;;2.10;;
75542;SDS011;64129;53.508;10.476;2023-04-25T07:14:15;9.55;;;2.15;;
75542;SDS011;64129;53.508;10.476;2023-04-25T07:16:42;6.68;;;1.75;;
75542;SDS011;64129;53.508;10.476;2023-04-25T07:19:09;10.85;;;2.40;;
75542;SDS011;64129;53.508;10.476;2023-04-25T07:21:36;14.07;;;2.13;;
75542;SDS011;64129;53.508;10.476;2023-04-25T07:24:04;9.88;;;2.33;;
75542;SDS011;64129;53.508;10.476;2023-04-25T07:26:34;7.25;;;2.00;;
75542;SDS011;64129;53.508;10.476;2023-04-25T07:29:19;9.70;;;2.38;;
75542;SDS011;64129;53.508;10.476;2023-04-25T07:31:46;9.63;;;2.65;;
75542;SDS011;64129;53.508;10.476;2023-04-25T07:34:12;5.00;;;1.63;;
75542;SDS011;64129;53.508;10.476;2023-04-25T07:36:39;12.02;;;1.85;;
75542;SDS011;64129;53.508;10.476;2023-04-25T07:39:06;6.68;;;1.65;;
75542;SDS011;64129;53.508;10.476;2023-04-25T07:41:32;9.73;;;2.58;;
75542;SDS011;64129;53.508;10.476;2023-04-25T07:43:59;5.82;;;1.52;;
75542;SDS011;64129;53.508;10.476;2023-04-25T07:46:26;9.23;;;2.15;;
75542;SDS011;64129;53.508;10.476;2023-04-25T07:48:52;10.85;;;1.88;;
75542;SDS011;64129;53.508;10.476;2023-04-25T07:51:20;10.60;;;1.70;;
75542;SDS011;64129;53.508;10.476;2023-04-25T07:53:50;4.95;;;1.50;;
75542;SDS011;64129;53.508;10.476;2023-04-25T07:56:16;6.18;;;1.88;;
75542;SDS011;64129;53.508;10.476;2023-04-25T07:58:46;6.40;;;1.73;;
75542;SDS011;64129;53.508;10.476;2023-04-25T08:01:15;10.43;;;2.33;;
75542;SDS011;64129;53.508;10.476;2023-04-25T08:03:55;6.18;;;1.25;;
75542;SDS011;64129;53.508;10.476;2023-04-25T08:06:34;9.15;;;1.40;;
75542;SDS011;64129;53.508;10.476;2023-04-25T08:09:07;6.35;;;1.35;;
75542;SDS011;64129;53.508;10.476;2023-04-25T08:11:37;6.60;;;1.38;;
75542;SDS011;64129;53.508;10.476;2023-04-25T08:14:06;4.47;;;1.55;;
75542;SDS011;64129;53.508;10.476;2023-04-25T08:16:33;6.07;;;1.52;;
75542;SDS011;64129;53.508;10.476;2023-04-25T08:19:01;6.43;;;2.10;;
75542;SDS011;64129;53.508;10.476;2023-04-25T08:21:27;6.47;;;1.77;;
75542;SDS011;64129;53.508;10.476;2023-04-25T08:23:56;4.68;;;1.90;;
75542;SDS011;64129;53.508;10.476;2023-04-25T08:26:28;8.00;;;1.92;;
75542;SDS011;64129;53.508;10.476;2023-04-25T08:28:55;10.00;;;2.10;;
75542;SDS011;64129;53.508;10.476;2023-04-25T08:31:22;7.40;;;2.15;;
75542;SDS011;64129;53.508;10.476;2023-04-25T08:33:56;8.00;;;1.75;;
75542;SDS011;64129;53.508;10.476;2023-04-25T08:36:36;7.90;;;1.58;;
75542;SDS011;64129;53.508;10.476;2023-04-25T08:39:12;3.22;;;1.52;;
75542;SDS011;64129;53.508;10.476;2023-04-25T08:41:47;5.13;;;1.50;;
75542;SDS011;64129;53.508;10.476;2023-04-25T08:44:15;8.07;;;2.42;;
75542;SDS011;64129;53.508;10.476;2023-04-25T08:46:42;8.20;;;1.67;;
75542;SDS011;64129;53.508;10.476;2023-04-25T08:49:24;8.77;;;1.98;;
75542;SDS011;64129;53.508;10.476;2023-04-25T08:51:51;4.40;;;1.00;;
75542;SDS011;64129;53.508;10.476;2023-04-25T08:54:22;6.10;;;1.55;;
75542;SDS011;64129;53.508;10.476;2023-04-25T08:56:57;18.10;;;4.57;;
75542;SDS011;64129;53.508;10.476;2023-04-25T08:59:28;6.45;;;1.73;;
75542;SDS011;64129;53.508;10.476;2023-04-25T09:01:55;6.38;;;1.05;;
75542;SDS011;64129;53.508;10.476;2023-04-25T09:04:21;3.30;;;1.02;;
75542;SDS011;64129;53.508;10.476;2023-04-25T09:06:48;1.95;;;0.80;;
75542;SDS011;64129;53.508;10.476;2023-04-25T09:09:15;4.40;;;1.02;;
75542;SDS011;64129;53.508;10.476;2023-04-25T09:11:43;4.70;;;1.00;;
75542;SDS011;64129;53.508;10.476;2023-04-25T09:14:16;5.60;;;1.38;;
75542;SDS011;64129;53.508;10.476;2023-04-25T09:17:12;7.45;;;1.42;;
75542;SDS011;64129;53.508;10.476;2023-04-25T09:19:45;6.32;;;1.38;;
75542;SDS011;64129;53.508;10.476;2023-04-25T09:22:19;6.05;;;1.13;;
75542;SDS011;64129;53.508;10.476;2023-04-25T09:24:48;4.80;;;1.08;;
75542;SDS011;64129;53.508;10.476;2023-04-25T09:27:18;4.40;;;1.10;;
75542;SDS011;64129;53.508;10.476;2023-04-25T09:29:57;4.10;;;1.02;;
75542;SDS011;64129;53.508;10.476;2023-04-25T09:32:38;6.75;;;2.17;;
75542;SDS011;64129;53.508;10.476;2023-04-25T09:35:05;7.40;;;1.50;;
75542;SDS011;64129;53.508;10.476;2023-04-25T09:37:31;6.15;;;1.25;;
75542;SDS011;64129;53.508;10.476;2023-04-25T09:40:04;4.55;;;1.23;;
75542;SDS011;64129;53.508;10.476;2023-04-25T09:42:46;5.72;;;1.30;;
75542;SDS011;64129;53.508;10.476;2023-04-25T09:45:12;5.05;;;0.98;;
75542;SDS011;64129;53.508;10.476;2023-04-25T09:47:43;2.97;;;1.45;;
75542;SDS011;64129;53.508;10.476;2023-04-25T09:50:16;6.82;;;1.23;;
75542;SDS011;64129;53.508;10.476;2023-04-25T09:53:02;5.40;;;1.23;;
75542;SDS011;64129;53.508;10.476;2023-04-25T09:55:39;7.00;;;1.95;;
75542;SDS011;64129;53.508;10.476;2023-04-25T09:58:07;4.00;;;1.13;;
75542;SDS011;64129;53.508;10.476;2023-04-25T10:00:36;4.28;;;1.10;;
75542;SDS011;64129;53.508;10.476;2023-04-25T10:03:17;5.22;;;1.38;;
75542;SDS011;64129;53.508;10.476;2023-04-25T10:05:55;5.53;;;1.30;;
75542;SDS011;64129;53.508;10.476;2023-04-25T10:08:22;6.47;;;1.58;;
75542;SDS011;64129;53.508;10.476;2023-04-25T10:10:51;4.05;;;0.95;;
75542;SDS011;64129;53.508;10.476;2023-04-25T10:13:17;4.28;;;0.90;;
75542;SDS011;64129;53.508;10.476;2023-04-25T10:15:44;3.58;;;1.05;;
75542;SDS011;64129;53.508;10.476;2023-04-25T10:18:12;5.03;;;1.38;;
75542;SDS011;64129;53.508;10.476;2023-04-25T10:20:39;6.20;;;1.20;;
75542;SDS011;64129;53.508;10.476;2023-04-25T10:23:08;3.88;;;0.77;;
75542;SDS011;64129;53.508;10.476;2023-04-25T10:25:40;1.95;;;0.70;;
75542;SDS011;64129;53.508;10.476;2023-04-25T10:30:34;1.90;;;0.40;;
75542;SDS011;64129;53.508;10.476;2023-04-25T10:33:00;1.50;;;0.77;;
75542;SDS011;64129;53.508;10.476;2023-04-25T10:35:27;4.82;;;0.88;;
75542;SDS011;64129;53.508;10.476;2023-04-25T10:38:13;2.20;;;0.80;;
75542;SDS011;64129;53.508;10.476;2023-04-25T10:40:40;3.63;;;0.52;;
75542;SDS011;64129;53.508;10.476;2023-04-25T10:48:27;2.70;;;1.05;;
75542;SDS011;64129;53.508;10.476;2023-04-25T10:51:07;7.72;;;1.00;;
75542;SDS011;64129;53.508;10.476;2023-04-25T10:53:34;5.75;;;1.13;;
75542;SDS011;64129;53.508;10.476;2023-04-25T10:56:08;2.50;;;0.85;;
75542;SDS011;64129;53.508;10.476;2023-04-25T11:01:38;1.60;;;0.60;;
75542;SDS011;64129;53.508;10.476;2023-04-25T11:04:06;4.07;;;0.88;;
75542;SDS011;64129;53.508;10.476;2023-04-25T11:09:55;4.10;;;0.90;;
75542;SDS011;64129;53.508;10.476;2023-04-25T11:12:21;3.25;;;0.95;;
75542;SDS011;64129;53.508;10.476;2023-04-25T11:14:50;1.83;;;0.85;;
75542;SDS011;64129;53.508;10.476;2023-04-25T11:17:24;4.25;;;1.02;;
75542;SDS011;64129;53.508;10.476;2023-04-25T11:19:51;3.45;;;1.00;;
75542;SDS011;64129;53.508;10.476;2023-04-25T11:22:18;4.82;;;0.80;;
75542;SDS011;64129;53.508;10.476;2023-04-25T11:24:44;5.15;;;1.00;;
75542;SDS011;64129;53.508;10.476;2023-04-25T11:27:11;6.43;;;0.98;;
75542;SDS011;64129;53.508;10.476;2023-04-25T11:29:38;4.93;;;0.88;;
75542;SDS011;64129;53.508;10.476;2023-04-25T11:32:04;3.15;;;0.80;;
75542;SDS011;64129;53.508;10.476;2023-04-25T11:34:31;8.05;;;0.73;;
75542;SDS011;64129;53.508;10.476;2023-04-25T11:36:59;1.52;;;0.60;;
75542;SDS011;64129;53.508;10.476;2023-04-25T11:39:28;6.40;;;1.13;;
75542;SDS011;64129;53.508;10.476;2023-04-25T11:41:54;6.75;;;1.27;;
75542;SDS011;64129;53.508;10.476;2023-04-25T11:44:21;4.28;;;0.80;;
75542;SDS011;64129;53.508;10.476;2023-04-25T11:46:48;2.55;;;0.80;;
75542;SDS011;64129;53.508;10.476;2023-04-25T11:49:15;5.95;;;1.15;;
75542;SDS011;64129;53.508;10.476;2023-04-25T11:51:44;7.07;;;1.40;;
75542;SDS011;64129;53.508;10.476;2023-04-25T11:54:12;3.25;;;0.65;;
75542;SDS011;64129;53.508;10.476;2023-04-25T11:56:42;6.70;;;0.80;;
75542;SDS011;64129;53.508;10.476;2023-04-25T11:59:11;4.72;;;0.77;;
75542;SDS011;64129;53.508;10.476;2023-04-25T12:01:38;6.40;;;1.00;;
75542;SDS011;64129;53.508;10.476;2023-04-25T12:04:19;4.35;;;0.77;;
75542;SDS011;64129;53.508;10.476;2023-04-25T12:06:53;7.57;;;0.70;;
75542;SDS011;64129;53.508;10.476;2023-04-25T12:09:27;2.35;;;0.45;;
75542;SDS011;64129;53.508;10.476;2023-04-25T12:11:59;4.10;;;1.42;;
75542;SDS011;64129;53.508;10.476;2023-04-25T12:14:33;1.75;;;0.70;;
75542;SDS011;64129;53.508;10.476;2023-04-25T12:17:02;6.68;;;1.00;;
75542;SDS011;64129;53.508;10.476;2023-04-25T12:19:33;10.25;;;1.33;;
75542;SDS011;64129;53.508;10.476;2023-04-25T12:22:01;3.15;;;0.77;;
75542;SDS011;64129;53.508;10.476;2023-04-25T12:27:00;2.97;;;0.80;;
75542;SDS011;64129;53.508;10.476;2023-04-25T12:29:30;6.22;;;0.80;;
75542;SDS011;64129;53.508;10.476;2023-04-25T12:32:07;2.53;;;0.70;;
75542;SDS011;64129;53.508;10.476;2023-04-25T12:34:34;2.72;;;0.75;;
75542;SDS011;64129;53.508;10.476;2023-04-25T12:37:02;1.60;;;0.63;;
75542;SDS011;64129;53.508;10.476;2023-04-25T12:39:28;3.70;;;0.65;;
75542;SDS011;64129;53.508;10.476;2023-04-25T12:41:55;4.72;;;0.85;;
75542;SDS011;64129;53.508;10.476;2023-04-25T12:44:21;4.22;;;0.93;;
75542;SDS011;64129;53.508;10.476;2023-04-25T12:46:48;8.00;;;1.13;;
75542;SDS011;64129;53.508;10.476;2023-04-25T12:49:14;5.60;;;1.00;;
75542;SDS011;64129;53.508;10.476;2023-04-25T12:51:44;4.28;;;0.82;;
75542;SDS011;64129;53.508;10.476;2023-04-25T12:54:10;4.22;;;0.75;;
75542;SDS011;64129;53.508;10.476;2023-04-25T12:56:37;2.28;;;0.70;;
75542;SDS011;64129;53.508;10.476;2023-04-25T12:59:03;3.88;;;0.90;;
75542;SDS011;64129;53.508;10.476;2023-04-25T13:01:30;2.83;;;0.90;;
75542;SDS011;64129;53.508;10.476;2023-04-25T13:03:57;5.38;;;1.00;;
75542;SDS011;64129;53.508;10.476;2023-04-25T13:06:23;1.30;;;0.65;;
75542;SDS011;64129;53.508;10.476;2023-04-25T13:08:50;2.03;;;0.55;;
75542;SDS011;64129;53.508;10.476;2023-04-25T13:11:17;2.95;;;0.75;;
75542;SDS011;64129;53.508;10.476;2023-04-25T13:13:43;2.13;;;0.77;;
75542;SDS011;64129;53.508;10.476;2023-04-25T13:16:10;1.73;;;0.50;;
75542;SDS011;64129;53.508;10.476;2023-04-25T13:18:40;2.15;;;0.50;;
75542;SDS011;64129;53.508;10.476;2023-04-25T13:21:07;3.55;;;0.73;;
75542;SDS011;64129;53.508;10.476;2023-04-25T13:23:35;4.82;;;0.88;;
75542;SDS011;64129;53.508;10.476;2023-04-25T13:26:02;5.00;;;1.05;;
75542;SDS011;64129;53.508;10.476;2023-04-25T13:28:28;7.95;;;0.90;;
75542;SDS011;64129;53.508;10.476;2023-04-25T13:30:55;1.83;;;0.70;;
75542;SDS011;64129;53.508;10.476;2023-04-25T13:33:21;3.50;;;1.02;;
75542;SDS011;64129;53.508;10.476;2023-04-25T13:35:48;2.50;;;0.88;;
75542;SDS011;64129;53.508;10.476;2023-04-25T13:38:23;3.60;;;0.80;;
75542;SDS011;64129;53.508;10.476;2023-04-25T13:40:51;2.45;;;0.80;;
75542;SDS011;64129;53.508;10.476;2023-04-25T13:43:19;1.83;;;0.52;;
75542;SDS011;64129;53.508;10.476;2023-04-25T13:45:46;2.85;;;0.63;;
75542;SDS011;64129;53.508;10.476;2023-04-25T13:48:12;3.17;;;0.60;;
75542;SDS011;64129;53.508;10.476;2023-04-25T13:50:39;4.90;;;0.75;;
75542;SDS011;64129;53.508;10.476;2023-04-25T13:53:06;2.15;;;0.70;;
75542;SDS011;64129;53.508;10.476;2023-04-25T13:55:33;3.92;;;0.73;;
75542;SDS011;64129;53.508;10.476;2023-04-25T13:58:01;3.15;;;0.63;;
75542;SDS011;64129;53.508;10.476;2023-04-25T14:00:34;3.95;;;0.88;;
75542;SDS011;64129;53.508;10.476;2023-04-25T14:03:09;3.33;;;1.00;;
75542;SDS011;64129;53.508;10.476;2023-04-25T14:05:36;4.13;;;1.00;;
75542;SDS011;64129;53.508;10.476;2023-04-25T14:08:06;6.65;;;1.20;;
75542;SDS011;64129;53.508;10.476;2023-04-25T14:13:01;8.23;;;1.40;;
75542;SDS011;64129;53.508;10.476;2023-04-25T14:15:30;4.60;;;0.85;;
75542;SDS011;64129;53.508;10.476;2023-04-25T14:17:57;4.63;;;1.00;;
75542;SDS011;64129;53.508;10.476;2023-04-25T14:20:25;5.32;;;1.02;;
75542;SDS011;64129;53.508;10.476;2023-04-25T14:22:52;2.63;;;0.43;;
75542;SDS011;64129;53.508;10.476;2023-04-25T14:27:47;2.15;;;0.65;;
75542;SDS011;64129;53.508;10.476;2023-04-25T14:30:16;3.17;;;0.95;;
75542;SDS011;64129;53.508;10.476;2023-04-25T14:32:44;4.18;;;1.00;;
75542;SDS011;64129;53.508;10.476;2023-04-25T14:35:11;3.83;;;0.93;;
75542;SDS011;64129;53.508;10.476;2023-04-25T14:37:38;2.88;;;0.82;;
75542;SDS011;64129;53.508;10.476;2023-04-25T14:40:05;3.00;;;0.63;;
75542;SDS011;64129;53.508;10.476;2023-04-25T14:42:34;2.42;;;1.23;;
75542;SDS011;64129;53.508;10.476;2023-04-25T14:45:02;5.18;;;1.00;;
75542;SDS011;64129;53.508;10.476;2023-04-25T14:47:31;3.80;;;0.90;;
75542;SDS011;64129;53.508;10.476;2023-04-25T14:49:58;3.47;;;0.90;;
75542;SDS011;64129;53.508;10.476;2023-04-25T14:52:24;6.25;;;1.00;;
75542;SDS011;64129;53.508;10.476;2023-04-25T14:54:51;5.30;;;0.95;;
75542;SDS011;64129;53.508;10.476;2023-04-25T14:57:18;3.15;;;0.93;;
75542;SDS011;64129;53.508;10.476;2023-04-25T14:59:45;3.22;;;0.85;;
75542;SDS011;64129;53.508;10.476;2023-04-25T15:02:11;3.05;;;0.90;;
75542;SDS011;64129;53.508;10.476;2023-04-25T15:04:38;2.15;;;0.50;;
75542;SDS011;64129;53.508;10.476;2023-04-25T15:07:05;4.25;;;1.05;;
75542;SDS011;64129;53.508;10.476;2023-04-25T15:09:31;5.35;;;1.10;;
75542;SDS011;64129;53.508;10.476;2023-04-25T15:11:57;5.13;;;1.02;;
75542;SDS011;64129;53.508;10.476;2023-04-25T15:14:24;4.88;;;0.82;;
75542;SDS011;64129;53.508;10.476;2023-04-25T15:16:51;3.97;;;0.80;;
75542;SDS011;64129;53.508;10.476;2023-04-25T15:19:17;4.10;;;1.38;;